createdAt,value
2022-08-10T00:00:33.349Z,20.27
2022-08-10T00:03:58.237Z,20.26
2022-08-10T00:07:23.612Z,20.209999
2022-08-10T00:10:48.975Z,20.17
2022-08-10T00:14:14.365Z,20.059999
2022-08-10T00:17:39.751Z,19.93
2022-08-10T00:21:05.102Z,19.780001
2022-08-10T00:24:30.516Z,19.639999
2022-08-10T00:28:02.366Z,19.530001
2022-08-10T00:31:21.306Z,19.4
2022-08-10T00:34:46.676Z,19.290001
2022-08-10T00:38:12.067Z,19.209999
2022-08-10T00:41:37.489Z,19.129999
2022-08-10T00:45:02.940Z,19.02
2022-08-10T00:48:28.363Z,18.92
2022-08-10T00:51:53.702Z,18.75
2022-08-10T00:55:19.074Z,18.610001
2022-08-10T00:58:44.480Z,18.5
2022-08-10T01:02:11.749Z,18.42
2022-08-10T01:05:35.286Z,18.360001
2022-08-10T01:09:00.656Z,18.33
2022-08-10T01:12:34.291Z,18.299999
2022-08-10T01:15:51.378Z,18.309999
2022-08-10T01:19:16.746Z,18.26
2022-08-10T01:22:42.099Z,18.209999
2022-08-10T01:26:11.357Z,18.17
2022-08-10T01:29:32.799Z,18.139999
2022-08-10T01:32:58.192Z,18.120001
2022-08-10T01:36:32.120Z,18.110001
2022-08-10T01:39:49.048Z,18.07
2022-08-10T01:43:14.329Z,18.01
2022-08-10T01:46:39.689Z,17.959999
2022-08-10T01:50:05.052Z,17.889999
2022-08-10T01:53:40.258Z,17.860001
2022-08-10T01:56:55.766Z,17.799999
2022-08-10T02:00:21.093Z,17.75
2022-08-10T02:04:01.448Z,17.709999
2022-08-10T02:07:11.797Z,17.67
2022-08-10T02:10:37.155Z,17.59
2022-08-10T02:14:02.536Z,17.559999
2022-08-10T02:17:57.163Z,17.530001
2022-08-10T02:20:53.266Z,17.469999
2022-08-10T02:24:18.655Z,17.389999
2022-08-10T02:27:44.012Z,17.35
2022-08-10T02:31:10.400Z,17.309999
2022-08-10T02:34:34.699Z,17.290001
2022-08-10T02:38:00.112Z,17.290001
2022-08-10T02:42:17.763Z,17.290001
2022-08-10T02:45:16.366Z,17.27
2022-08-10T02:48:16.200Z,17.280001
2022-08-10T02:52:06.035Z,17.309999
2022-08-10T02:55:17.743Z,17.35
2022-08-10T02:58:32.280Z,17.43
2022-08-10T03:01:57.618Z,17.48
2022-08-10T03:05:22.936Z,17.58
2022-08-10T03:08:48.296Z,17.66
2022-08-10T03:12:16.302Z,17.690001
2022-08-10T03:15:38.983Z,17.709999
2022-08-10T03:19:04.336Z,17.700001
2022-08-10T03:22:29.699Z,17.68
2022-08-10T03:25:55.123Z,17.67
2022-08-10T03:29:20.371Z,17.629999
2022-08-10T03:32:45.766Z,17.620001
2022-08-10T03:36:40.958Z,17.6
2022-08-10T03:39:36.748Z,17.6
2022-08-10T03:43:02.035Z,17.59
2022-08-10T03:46:27.363Z,17.549999
2022-08-10T03:49:52.821Z,17.52
2022-08-10T03:53:25.007Z,17.440001
2022-08-10T03:56:43.586Z,17.389999
2022-08-10T04:00:08.943Z,17.379999
2022-08-10T04:03:34.322Z,17.389999
2022-08-10T04:06:59.695Z,17.440001
2022-08-10T04:10:25.036Z,17.469999
2022-08-10T04:13:51.069Z,17.5
2022-08-10T04:17:16.407Z,17.5
2022-08-10T04:20:41.769Z,17.52
2022-08-10T04:24:07.096Z,17.57
2022-08-10T04:27:32.395Z,17.59
2022-08-10T04:30:57.738Z,17.610001
2022-08-10T04:34:23.062Z,17.65
2022-08-10T04:37:48.408Z,17.700001
2022-08-10T04:41:13.752Z,17.76
2022-08-10T04:44:39.050Z,17.809999
2022-08-10T04:48:04.368Z,17.879999
2022-08-10T04:51:29.739Z,17.92
2022-08-10T04:54:55.121Z,17.959999
2022-08-10T04:58:20.470Z,17.98
2022-08-10T05:02:13.568Z,18.030001
2022-08-10T05:05:11.115Z,18.07
2022-08-10T05:08:36.475Z,18.08
2022-08-10T05:12:01.815Z,18.1
2022-08-10T05:15:27.108Z,18.09
2022-08-10T05:18:52.472Z,18.110001
2022-08-10T05:22:17.809Z,18.16
2022-08-10T05:25:43.167Z,18.139999
2022-08-10T05:29:08.495Z,18.110001
2022-08-10T05:32:55.834Z,18.110001
2022-08-10T05:35:59.171Z,18.139999
2022-08-10T05:39:25.331Z,18.18
2022-08-10T05:42:49.900Z,18.24
2022-08-10T05:46:16.584Z,18.33
2022-08-10T05:49:40.625Z,18.48
2022-08-10T05:53:23.126Z,18.639999
2022-08-10T05:56:54.621Z,18.82
2022-08-10T06:00:09.217Z,19.040001
2022-08-10T06:03:24.024Z,19.290001
2022-08-10T06:06:48.083Z,19.58
2022-08-10T06:10:13.466Z,19.9
2022-08-10T06:13:59.527Z,20.190001
2022-08-10T06:17:04.052Z,20.469999
2022-08-10T06:20:32.800Z,20.6
2022-08-10T06:23:54.715Z,20.77
2022-08-10T06:27:20.028Z,20.98
2022-08-10T06:30:45.295Z,21.280001
2022-08-10T06:34:10.560Z,21.59
2022-08-10T06:37:35.805Z,21.809999
2022-08-10T06:41:01.070Z,22.01
2022-08-10T06:44:26.355Z,22.129999
2022-08-10T06:47:51.587Z,22.219999
2022-08-10T06:51:16.869Z,22.290001
2022-08-10T06:54:42.157Z,22.379999
2022-08-10T06:58:07.423Z,22.440001
2022-08-10T07:01:32.749Z,22.48
2022-08-10T07:04:57.963Z,22.48
2022-08-10T07:08:23.268Z,22.440001
2022-08-10T07:11:48.616Z,22.360001
2022-08-10T07:15:13.916Z,22.290001
2022-08-10T07:18:39.233Z,22.299999
2022-08-10T07:23:00.598Z,22.33
2022-08-10T07:26:29.267Z,22.4
2022-08-10T07:30:18.887Z,22.459999
2022-08-10T07:33:51.239Z,22.540001
2022-08-10T07:37:45.927Z,22.639999
2022-08-10T07:45:08.252Z,22.940001
2022-08-10T07:49:15.562Z,23.1
2022-08-10T07:53:23.881Z,23.290001
2022-08-10T07:58:13.642Z,23.42
2022-08-10T08:02:54.097Z,23.549999
2022-08-10T08:06:19.377Z,23.610001
2022-08-10T08:09:56.974Z,23.66
2022-08-10T08:13:09.967Z,23.709999
2022-08-10T08:16:35.261Z,23.790001
2022-08-10T08:20:00.581Z,23.84
2022-08-10T08:24:02.869Z,23.92
2022-08-10T08:27:47.566Z,23.93
2022-08-10T08:31:26.061Z,23.9
2022-08-10T08:35:06.972Z,23.93
2022-08-10T08:38:34.827Z,23.969999
2022-08-10T08:41:57.565Z,24.030001
2022-08-10T08:45:22.869Z,24.040001
2022-08-10T08:48:48.191Z,24.02
2022-08-10T08:52:17.964Z,24.040001
2022-08-10T08:56:03.212Z,24.08
2022-08-10T08:59:04.090Z,24.110001
2022-08-10T09:02:29.375Z,24.15
2022-08-10T09:05:59.004Z,24.190001
2022-08-10T09:09:19.939Z,24.26
2022-08-10T09:12:45.251Z,24.309999
2022-08-10T09:16:10.549Z,24.280001
2022-08-10T09:19:36.787Z,24.280001
2022-08-10T09:23:01.151Z,24.33
2022-08-10T09:26:26.439Z,24.4
2022-08-10T09:29:51.729Z,24.42
2022-08-10T09:36:18.382Z,24.41
2022-08-10T09:36:42.530Z,24.360001
2022-08-10T09:40:57.020Z,24.33
2022-08-10T09:43:32.987Z,24.35
2022-08-10T09:46:58.295Z,24.540001
2022-08-10T09:50:23.588Z,24.74
2022-08-10T09:53:48.911Z,24.870001
2022-08-10T09:57:46.463Z,24.98
2022-08-10T10:00:39.572Z,25.200001
2022-08-10T10:04:04.896Z,25.450001
2022-08-10T10:07:30.190Z,25.549999
2022-08-10T10:11:14.725Z,25.51
2022-08-10T10:14:43.656Z,25.51
2022-08-10T10:18:08.970Z,25.530001
2022-08-10T10:21:52.446Z,25.709999
2022-08-10T10:25:00.494Z,25.83
2022-08-10T10:28:39.109Z,25.889999
2022-08-10T10:31:56.044Z,25.99
2022-08-10T10:35:21.366Z,26.08
2022-08-10T10:38:46.664Z,26.26
2022-08-10T10:42:28.882Z,26.5
2022-08-10T10:45:40.366Z,26.610001
2022-08-10T10:49:02.580Z,26.610001
2022-08-10T10:52:27.901Z,26.5
2022-08-10T10:56:14.063Z,26.32
2022-08-10T10:59:35.543Z,26.200001
2022-08-10T11:02:43.850Z,26.120001
2022-08-10T11:06:14.095Z,26.049999
2022-08-10T11:10:04.260Z,26.129999
2022-08-10T11:13:06.924Z,26.110001
2022-08-10T11:16:30.088Z,26.16
2022-08-10T11:20:00.023Z,26.23
2022-08-10T11:23:20.667Z,26.18
2022-08-10T11:26:45.960Z,26.23
2022-08-10T11:30:11.245Z,26.42
2022-08-10T11:33:57.406Z,26.42
2022-08-10T11:37:09.118Z,26.309999
2022-08-10T11:40:35.068Z,26.16
2022-08-10T11:44:11.450Z,25.98
2022-08-10T11:47:37.013Z,25.85
2022-08-10T11:51:05.121Z,25.709999
2022-08-10T11:54:33.229Z,25.639999
2022-08-10T11:57:58.666Z,25.6
2022-08-10T12:01:24.019Z,25.66
2022-08-10T12:04:49.354Z,25.719999
2022-08-10T12:10:03.368Z,25.74
2022-08-10T12:11:39.998Z,25.709999
2022-08-10T12:15:05.337Z,25.67
2022-08-10T12:18:30.645Z,25.67
2022-08-10T12:21:55.938Z,25.83
2022-08-10T12:25:55.350Z,25.99
2022-08-10T12:28:49.584Z,26.09
2022-08-10T12:32:11.870Z,26.049999
2022-08-10T12:35:37.181Z,25.99
2022-08-10T12:39:02.471Z,25.950001
2022-08-10T12:42:36.874Z,25.889999
2022-08-10T12:45:53.107Z,25.860001
2022-08-10T12:49:18.414Z,25.82
2022-08-10T12:52:43.723Z,25.889999
2022-08-10T12:56:08.986Z,25.98
2022-08-10T12:59:43.022Z,25.92
2022-08-10T13:03:01.761Z,25.83
2022-08-10T13:06:28.525Z,25.77
2022-08-10T13:09:55.427Z,25.76
2022-08-10T13:13:20.808Z,25.77
2022-08-10T13:16:46.735Z,25.719999
2022-08-10T13:20:13.942Z,25.73
2022-08-10T13:23:38.628Z,25.74
2022-08-10T13:27:24.406Z,25.790001
2022-08-10T13:30:33.778Z,26.01
2022-08-10T13:34:04.201Z,26.290001
2022-08-10T13:37:21.413Z,26.469999
2022-08-10T13:40:46.885Z,26.450001
2022-08-10T13:44:12.458Z,26.33
2022-08-10T13:47:48.247Z,26.219999
2022-08-10T13:51:04.314Z,26.059999
2022-08-10T13:54:29.620Z,25.959999
2022-08-10T13:57:56.550Z,25.9
2022-08-10T14:01:20.196Z,25.870001
2022-08-10T14:04:45.426Z,25.91
2022-08-10T14:08:10.703Z,26.09
2022-08-10T14:11:35.948Z,26.27
2022-08-10T14:15:01.284Z,26.41
2022-08-10T14:18:26.569Z,26.360001
2022-08-10T14:21:51.844Z,26.26
2022-08-10T14:25:17.130Z,26.17
2022-08-10T14:28:42.434Z,26.07
2022-08-10T15:02:37.960Z,24.629999
2022-08-10T15:05:59.377Z,25.709999
2022-08-10T15:09:24.490Z,25.93
2022-08-10T15:12:49.787Z,26.059999
2022-08-10T15:16:15.052Z,26.08
2022-08-10T15:20:03.970Z,26.030001
2022-08-10T15:23:05.609Z,26
2022-08-10T15:26:30.910Z,25.959999
2022-08-10T15:29:56.882Z,25.91
2022-08-10T15:33:58.128Z,25.870001
2022-08-10T15:36:46.760Z,25.83
2022-08-10T15:40:22.935Z,25.77
2022-08-10T15:43:44.454Z,25.68
2022-08-10T15:47:02.728Z,25.610001
2022-08-10T15:50:27.984Z,25.549999
2022-08-10T15:53:53.288Z,25.51
2022-08-10T15:57:18.589Z,25.49
2022-08-10T16:00:43.908Z,25.469999
2022-08-10T16:04:09.323Z,25.450001
2022-08-10T16:07:38.930Z,25.469999
2022-08-10T16:11:01.252Z,25.5
2022-08-10T16:14:27.170Z,25.559999
2022-08-10T16:17:54.039Z,25.610001
2022-08-10T16:21:17.790Z,25.68
2022-08-10T16:24:43.129Z,25.77
2022-08-10T16:28:08.493Z,25.82
2022-08-10T16:31:33.911Z,25.860001
2022-08-10T16:34:59.254Z,25.9
2022-08-10T16:38:24.603Z,25.959999
2022-08-10T16:42:00.922Z,25.99
2022-08-10T16:45:15.268Z,25.99
2022-08-10T16:48:49.305Z,25.99
2022-08-10T16:52:05.923Z,25.950001
2022-08-10T16:55:47.801Z,25.889999
2022-08-10T16:58:56.529Z,25.85
2022-08-10T17:02:21.855Z,25.77
2022-08-10T17:06:02.047Z,25.66
2022-08-10T17:09:12.711Z,25.57
2022-08-10T17:12:38.166Z,25.51
2022-08-10T17:16:07.694Z,25.4
2022-08-10T17:19:39.793Z,25.299999
2022-08-10T17:23:05.884Z,25.219999
2022-08-10T17:26:36.266Z,25.09
2022-08-10T17:29:59.332Z,25.01
2022-08-10T17:33:21.796Z,24.92
2022-08-10T17:36:47.177Z,24.84
2022-08-10T17:40:12.456Z,24.76
2022-08-10T17:43:46.085Z,24.68
2022-08-10T17:47:10.701Z,24.629999
2022-08-10T17:50:28.535Z,24.620001
2022-08-10T17:53:53.888Z,24.559999
2022-08-10T17:57:19.371Z,24.51
2022-08-10T18:00:44.681Z,24.469999
2022-08-10T18:04:09.956Z,24.450001
2022-08-10T18:07:35.582Z,24.440001
2022-08-10T18:11:00.589Z,24.41
2022-08-10T18:14:25.889Z,24.379999
2022-08-10T18:17:54.316Z,24.34
2022-08-10T18:21:16.586Z,24.290001
2022-08-10T18:24:41.911Z,24.23
2022-08-10T18:28:07.679Z,24.18
2022-08-10T18:31:32.588Z,24.120001
2022-08-10T18:34:57.961Z,24.07
2022-08-10T18:38:23.296Z,24.02
2022-08-10T18:42:00.129Z,23.959999
2022-08-10T18:45:13.999Z,23.91
2022-08-10T18:48:39.326Z,23.780001
2022-08-10T18:52:04.644Z,23.700001
2022-08-10T18:55:35.262Z,23.639999
2022-08-10T18:58:57.422Z,23.59
2022-08-10T19:02:20.701Z,23.540001
2022-08-10T19:05:48.374Z,23.49
2022-08-10T19:09:41.662Z,23.450001
2022-08-10T19:12:36.708Z,23.4
2022-08-10T19:16:02.053Z,23.33
2022-08-10T19:19:27.370Z,23.24
2022-08-10T19:22:52.743Z,23.120001
2022-08-10T19:26:43.595Z,23.01
2022-08-10T19:30:01.159Z,22.959999
2022-08-10T19:33:08.743Z,22.9
2022-08-10T19:36:34.061Z,22.870001
2022-08-10T19:39:59.448Z,22.83
2022-08-10T19:43:30.622Z,22.780001
2022-08-10T19:46:50.005Z,22.73
2022-08-10T19:50:15.381Z,22.68
2022-08-10T19:53:40.682Z,22.620001
2022-08-10T19:57:05.970Z,22.559999
2022-08-10T20:00:31.263Z,22.52
2022-08-10T20:03:56.567Z,22.49
2022-08-10T20:07:21.857Z,22.440001
2022-08-10T20:10:47.163Z,22.32
2022-08-10T20:14:21.693Z,22.16
2022-08-10T20:17:44.932Z,22.01
2022-08-10T20:21:03.026Z,21.9
2022-08-10T20:24:28.335Z,21.83
2022-08-10T20:27:59.377Z,21.75
2022-08-10T20:31:18.932Z,21.59
2022-08-10T20:34:44.214Z,21.41
2022-08-10T20:38:09.831Z,21.25
2022-08-10T20:41:43.645Z,21.16
2022-08-10T20:45:00.150Z,21.08
2022-08-10T20:48:25.431Z,21.01
2022-08-10T20:51:57.752Z,20.959999
2022-08-10T20:55:16.028Z,20.92
2022-08-10T20:58:41.298Z,20.91
2022-08-10T21:02:11.179Z,20.860001
2022-08-10T21:05:31.908Z,20.83
2022-08-10T21:08:57.219Z,20.73
2022-08-10T21:12:22.507Z,20.66
2022-08-10T21:15:47.802Z,20.57
2022-08-10T21:19:13.156Z,20.51
2022-08-10T21:22:38.405Z,20.469999
2022-08-10T21:26:03.842Z,20.459999
2022-08-10T21:29:37.709Z,20.42
2022-08-10T21:32:54.254Z,20.43
2022-08-10T21:36:19.552Z,20.450001
2022-08-10T21:39:44.898Z,20.450001
2022-08-10T21:43:10.153Z,20.440001
2022-08-10T21:46:35.456Z,20.450001
2022-08-10T21:50:04.312Z,20.450001
2022-08-10T21:53:28.813Z,20.4
2022-08-10T21:56:51.334Z,20.309999
2022-08-10T22:00:16.599Z,20.209999
2022-08-10T22:03:41.868Z,20.1
2022-08-10T22:07:09.001Z,19.92
2022-08-10T22:10:32.407Z,19.75
2022-08-10T22:13:57.714Z,19.629999
2022-08-10T22:18:00.597Z,19.5
2022-08-10T22:20:49.643Z,19.42
2022-08-10T22:24:17.060Z,19.33
2022-08-10T22:27:46.042Z,19.27
2022-08-10T22:31:32.418Z,19.23
2022-08-10T22:34:29.261Z,19.219999
2022-08-10T22:37:54.468Z,19.200001
2022-08-10T22:41:19.700Z,19.16
2022-08-10T22:44:44.939Z,19.129999
2022-08-10T22:48:10.146Z,19.07
2022-08-10T22:51:35.368Z,19.030001
2022-08-10T22:55:00.590Z,19
2022-08-10T22:58:25.817Z,18.969999
2022-08-10T23:02:07.151Z,18.940001
2022-08-10T23:05:16.304Z,18.940001
2022-08-10T23:08:41.564Z,18.959999
2022-08-10T23:12:06.799Z,19
2022-08-10T23:15:32.060Z,19
2022-08-10T23:18:57.308Z,19.030001
2022-08-10T23:22:22.549Z,19.040001
2022-08-10T23:25:56.954Z,19
2022-08-10T23:29:13.052Z,18.98
2022-08-10T23:32:38.439Z,18.969999
2022-08-10T23:36:05.014Z,18.93
2022-08-10T23:39:28.848Z,18.879999
2022-08-10T23:42:54.043Z,18.83
2022-08-10T23:46:19.284Z,18.77
2022-08-10T23:49:44.541Z,18.75
2022-08-10T23:53:13.215Z,18.709999
2022-08-10T23:56:35.037Z,18.690001
